sensor_id;sensor_type;location;lat;lon;timestamp;P1;durP1;ratioP1;P2;durP2;ratioP2
29320;SDS011;16323;51.130;6.612;2022-08-19T00:00:29;2.58;;;2.30;;
29320;SDS011;16323;51.130;6.612;2022-08-19T00:02:57;2.08;;;1.83;;
29320;SDS011;16323;51.130;6.612;2022-08-19T00:05:25;2.70;;;2.20;;
29320;SDS011;16323;51.130;6.612;2022-08-19T00:07:52;2.05;;;1.85;;
29320;SDS011;16323;51.130;6.612;2022-08-19T00:10:19;2.88;;;2.20;;
29320;SDS011;16323;51.130;6.612;2022-08-19T00:12:47;2.25;;;2.00;;
29320;SDS011;16323;51.130;6.612;2022-08-19T00:15:14;2.60;;;2.10;;
29320;SDS011;16323;51.130;6.612;2022-08-19T00:17:43;3.65;;;2.50;;
29320;SDS011;16323;51.130;6.612;2022-08-19T00:20:12;2.35;;;2.10;;
29320;SDS011;16323;51.130;6.612;2022-08-19T00:22:43;2.38;;;2.15;;
29320;SDS011;16323;51.130;6.612;2022-08-19T00:25:10;2.60;;;2.40;;
29320;SDS011;16323;51.130;6.612;2022-08-19T00:27:37;2.63;;;2.42;;
29320;SDS011;16323;51.130;6.612;2022-08-19T00:30:05;2.30;;;2.10;;
29320;SDS011;16323;51.130;6.612;2022-08-19T00:32:34;2.53;;;2.33;;
29320;SDS011;16323;51.130;6.612;2022-08-19T00:35:01;2.80;;;2.20;;
29320;SDS011;16323;51.130;6.612;2022-08-19T00:37:28;2.50;;;2.08;;
29320;SDS011;16323;51.130;6.612;2022-08-19T00:39:56;3.10;;;2.35;;
29320;SDS011;16323;51.130;6.612;2022-08-19T00:42:23;2.40;;;2.00;;
29320;SDS011;16323;51.130;6.612;2022-08-19T00:44:53;2.10;;;1.90;;
29320;SDS011;16323;51.130;6.612;2022-08-19T00:47:20;2.20;;;2.00;;
29320;SDS011;16323;51.130;6.612;2022-08-19T00:49:47;2.58;;;2.20;;
29320;SDS011;16323;51.130;6.612;2022-08-19T00:52:17;2.50;;;2.30;;
29320;SDS011;16323;51.130;6.612;2022-08-19T00:54:47;2.42;;;2.22;;
29320;SDS011;16323;51.130;6.612;2022-08-19T00:57:16;2.40;;;2.20;;
29320;SDS011;16323;51.130;6.612;2022-08-19T00:59:46;2.45;;;2.25;;
29320;SDS011;16323;51.130;6.612;2022-08-19T01:02:17;2.30;;;2.10;;
29320;SDS011;16323;51.130;6.612;2022-08-19T01:04:44;2.97;;;2.53;;
29320;SDS011;16323;51.130;6.612;2022-08-19T01:07:11;2.50;;;2.20;;
29320;SDS011;16323;51.130;6.612;2022-08-19T01:09:39;2.85;;;2.50;;
29320;SDS011;16323;51.130;6.612;2022-08-19T01:12:06;3.15;;;2.33;;
29320;SDS011;16323;51.130;6.612;2022-08-19T01:14:35;2.20;;;2.00;;
29320;SDS011;16323;51.130;6.612;2022-08-19T01:17:04;2.97;;;2.30;;
29320;SDS011;16323;51.130;6.612;2022-08-19T01:19:35;2.83;;;2.60;;
29320;SDS011;16323;51.130;6.612;2022-08-19T01:22:06;3.08;;;2.63;;
29320;SDS011;16323;51.130;6.612;2022-08-19T01:24:40;4.55;;;2.70;;
29320;SDS011;16323;51.130;6.612;2022-08-19T01:27:07;2.60;;;2.40;;
29320;SDS011;16323;51.130;6.612;2022-08-19T01:29:36;2.80;;;2.50;;
29320;SDS011;16323;51.130;6.612;2022-08-19T01:32:05;2.95;;;2.67;;
29320;SDS011;16323;51.130;6.612;2022-08-19T01:34:33;3.22;;;2.80;;
29320;SDS011;16323;51.130;6.612;2022-08-19T01:37:00;3.72;;;2.75;;
29320;SDS011;16323;51.130;6.612;2022-08-19T01:39:33;2.85;;;2.55;;
29320;SDS011;16323;51.130;6.612;2022-08-19T01:42:01;2.95;;;2.65;;
29320;SDS011;16323;51.130;6.612;2022-08-19T01:44:29;7.00;;;2.90;;
29320;SDS011;16323;51.130;6.612;2022-08-19T01:46:56;2.83;;;2.20;;
29320;SDS011;16323;51.130;6.612;2022-08-19T01:49:24;4.18;;;3.10;;
29320;SDS011;16323;51.130;6.612;2022-08-19T01:51:53;3.33;;;2.47;;
29320;SDS011;16323;51.130;6.612;2022-08-19T01:54:20;3.72;;;2.95;;
29320;SDS011;16323;51.130;6.612;2022-08-19T01:56:49;3.13;;;2.53;;
29320;SDS011;16323;51.130;6.612;2022-08-19T01:59:18;3.17;;;2.88;;
29320;SDS011;16323;51.130;6.612;2022-08-19T02:01:47;3.03;;;2.75;;
29320;SDS011;16323;51.130;6.612;2022-08-19T02:04:14;3.60;;;2.92;;
29320;SDS011;16323;51.130;6.612;2022-08-19T02:06:41;3.17;;;2.88;;
29320;SDS011;16323;51.130;6.612;2022-08-19T02:09:08;3.45;;;2.85;;
29320;SDS011;16323;51.130;6.612;2022-08-19T02:11:36;2.97;;;2.67;;
29320;SDS011;16323;51.130;6.612;2022-08-19T02:14:04;3.50;;;2.70;;
29320;SDS011;16323;51.130;6.612;2022-08-19T02:16:34;3.15;;;2.85;;
29320;SDS011;16323;51.130;6.612;2022-08-19T02:19:03;3.97;;;2.60;;
29320;SDS011;16323;51.130;6.612;2022-08-19T02:21:30;3.88;;;3.20;;
29320;SDS011;16323;51.130;6.612;2022-08-19T02:23:57;5.13;;;3.33;;
29320;SDS011;16323;51.130;6.612;2022-08-19T02:26:24;4.03;;;3.13;;
29320;SDS011;16323;51.130;6.612;2022-08-19T02:28:52;3.50;;;3.15;;
29320;SDS011;16323;51.130;6.612;2022-08-19T02:31:20;4.20;;;3.58;;
29320;SDS011;16323;51.130;6.612;2022-08-19T02:33:50;4.13;;;3.28;;
29320;SDS011;16323;51.130;6.612;2022-08-19T02:36:17;4.22;;;3.53;;
29320;SDS011;16323;51.130;6.612;2022-08-19T02:38:44;5.88;;;4.03;;
29320;SDS011;16323;51.130;6.612;2022-08-19T02:41:12;5.05;;;3.85;;
29320;SDS011;16323;51.130;6.612;2022-08-19T02:43:41;4.28;;;3.47;;
29320;SDS011;16323;51.130;6.612;2022-08-19T02:46:12;5.45;;;4.25;;
29320;SDS011;16323;51.130;6.612;2022-08-19T02:48:40;5.85;;;4.00;;
29320;SDS011;16323;51.130;6.612;2022-08-19T02:51:08;4.20;;;3.50;;
29320;SDS011;16323;51.130;6.612;2022-08-19T02:53:34;5.00;;;3.90;;
29320;SDS011;16323;51.130;6.612;2022-08-19T02:56:05;6.13;;;3.90;;
29320;SDS011;16323;51.130;6.612;2022-08-19T02:58:32;3.97;;;3.38;;
29320;SDS011;16323;51.130;6.612;2022-08-19T03:01:00;4.32;;;3.75;;
29320;SDS011;16323;51.130;6.612;2022-08-19T03:03:26;5.53;;;3.80;;
29320;SDS011;16323;51.130;6.612;2022-08-19T03:06:10;4.72;;;4.00;;
29320;SDS011;16323;51.130;6.612;2022-08-19T03:08:39;4.97;;;4.47;;
29320;SDS011;16323;51.130;6.612;2022-08-19T03:11:11;6.07;;;4.93;;
29320;SDS011;16323;51.130;6.612;2022-08-19T03:13:39;5.97;;;4.82;;
29320;SDS011;16323;51.130;6.612;2022-08-19T03:16:08;6.72;;;5.22;;
29320;SDS011;16323;51.130;6.612;2022-08-19T03:18:35;6.03;;;5.10;;
29320;SDS011;16323;51.130;6.612;2022-08-19T03:21:02;5.97;;;5.13;;
29320;SDS011;16323;51.130;6.612;2022-08-19T03:23:31;5.93;;;5.20;;
29320;SDS011;16323;51.130;6.612;2022-08-19T03:25:58;5.55;;;4.97;;
29320;SDS011;16323;51.130;6.612;2022-08-19T03:28:25;5.85;;;5.20;;
29320;SDS011;16323;51.130;6.612;2022-08-19T03:30:57;5.80;;;5.05;;
29320;SDS011;16323;51.130;6.612;2022-08-19T03:33:26;7.47;;;6.03;;
29320;SDS011;16323;51.130;6.612;2022-08-19T03:36:07;6.07;;;5.25;;
29320;SDS011;16323;51.130;6.612;2022-08-19T03:38:37;6.22;;;5.55;;
29320;SDS011;16323;51.130;6.612;2022-08-19T03:41:06;5.93;;;5.32;;
29320;SDS011;16323;51.130;6.612;2022-08-19T03:43:34;6.03;;;5.43;;
29320;SDS011;16323;51.130;6.612;2022-08-19T03:46:03;6.70;;;5.70;;
29320;SDS011;16323;51.130;6.612;2022-08-19T03:48:32;6.65;;;5.55;;
29320;SDS011;16323;51.130;6.612;2022-08-19T03:50:59;7.05;;;5.72;;
29320;SDS011;16323;51.130;6.612;2022-08-19T03:53:27;6.30;;;5.70;;
29320;SDS011;16323;51.130;6.612;2022-08-19T03:55:57;5.93;;;5.25;;
29320;SDS011;16323;51.130;6.612;2022-08-19T03:58:24;6.50;;;5.88;;
29320;SDS011;16323;51.130;6.612;2022-08-19T04:00:52;6.75;;;5.70;;
29320;SDS011;16323;51.130;6.612;2022-08-19T04:03:19;6.53;;;5.85;;
29320;SDS011;16323;51.130;6.612;2022-08-19T04:05:46;5.80;;;5.22;;
29320;SDS011;16323;51.130;6.612;2022-08-19T04:08:13;7.28;;;6.05;;
29320;SDS011;16323;51.130;6.612;2022-08-19T04:10:45;6.22;;;5.63;;
29320;SDS011;16323;51.130;6.612;2022-08-19T04:13:14;8.07;;;6.10;;
29320;SDS011;16323;51.130;6.612;2022-08-19T04:15:42;6.38;;;5.57;;
29320;SDS011;16323;51.130;6.612;2022-08-19T04:18:11;7.07;;;6.30;;
29320;SDS011;16323;51.130;6.612;2022-08-19T04:20:39;6.57;;;5.88;;
29320;SDS011;16323;51.130;6.612;2022-08-19T04:23:07;7.40;;;6.00;;
29320;SDS011;16323;51.130;6.612;2022-08-19T04:25:35;6.93;;;6.20;;
29320;SDS011;16323;51.130;6.612;2022-08-19T04:28:03;6.95;;;6.10;;
29320;SDS011;16323;51.130;6.612;2022-08-19T04:30:31;6.75;;;6.03;;
29320;SDS011;16323;51.130;6.612;2022-08-19T04:33:04;7.15;;;5.82;;
29320;SDS011;16323;51.130;6.612;2022-08-19T04:35:34;6.43;;;5.68;;
29320;SDS011;16323;51.130;6.612;2022-08-19T04:38:02;6.93;;;6.03;;
29320;SDS011;16323;51.130;6.612;2022-08-19T04:40:29;6.65;;;5.70;;
29320;SDS011;16323;51.130;6.612;2022-08-19T04:43:13;6.93;;;5.95;;
29320;SDS011;16323;51.130;6.612;2022-08-19T04:45:41;6.72;;;5.90;;
29320;SDS011;16323;51.130;6.612;2022-08-19T04:48:09;6.57;;;5.82;;
29320;SDS011;16323;51.130;6.612;2022-08-19T04:50:36;7.55;;;6.40;;
29320;SDS011;16323;51.130;6.612;2022-08-19T04:53:06;7.97;;;6.30;;
29320;SDS011;16323;51.130;6.612;2022-08-19T04:55:32;6.97;;;5.97;;
29320;SDS011;16323;51.130;6.612;2022-08-19T04:58:00;6.72;;;6.03;;
29320;SDS011;16323;51.130;6.612;2022-08-19T05:00:27;6.65;;;5.93;;
29320;SDS011;16323;51.130;6.612;2022-08-19T05:02:55;7.85;;;6.60;;
29320;SDS011;16323;51.130;6.612;2022-08-19T05:05:22;7.03;;;5.93;;
29320;SDS011;16323;51.130;6.612;2022-08-19T05:07:49;7.72;;;6.00;;
29320;SDS011;16323;51.130;6.612;2022-08-19T05:10:17;7.03;;;6.30;;
29320;SDS011;16323;51.130;6.612;2022-08-19T05:12:44;8.35;;;5.82;;
29320;SDS011;16323;51.130;6.612;2022-08-19T05:15:10;6.88;;;6.18;;
29320;SDS011;16323;51.130;6.612;2022-08-19T05:17:37;6.65;;;5.85;;
29320;SDS011;16323;51.130;6.612;2022-08-19T05:20:25;6.60;;;5.90;;
29320;SDS011;16323;51.130;6.612;2022-08-19T05:23:10;6.90;;;5.75;;
29320;SDS011;16323;51.130;6.612;2022-08-19T05:25:39;5.85;;;5.25;;
29320;SDS011;16323;51.130;6.612;2022-08-19T05:28:06;6.03;;;5.30;;
29320;SDS011;16323;51.130;6.612;2022-08-19T05:30:33;7.22;;;5.90;;
29320;SDS011;16323;51.130;6.612;2022-08-19T05:33:00;6.15;;;5.50;;
29320;SDS011;16323;51.130;6.612;2022-08-19T05:35:28;6.47;;;5.50;;
29320;SDS011;16323;51.130;6.612;2022-08-19T05:37:55;6.72;;;5.75;;
29320;SDS011;16323;51.130;6.612;2022-08-19T05:40:22;5.90;;;5.30;;
29320;SDS011;16323;51.130;6.612;2022-08-19T05:42:49;6.38;;;5.15;;
29320;SDS011;16323;51.130;6.612;2022-08-19T05:45:16;6.75;;;5.38;;
29320;SDS011;16323;51.130;6.612;2022-08-19T05:47:43;14.15;;;6.88;;
29320;SDS011;16323;51.130;6.612;2022-08-19T05:50:11;10.50;;;6.03;;
29320;SDS011;16323;51.130;6.612;2022-08-19T05:52:39;12.77;;;7.57;;
29320;SDS011;16323;51.130;6.612;2022-08-19T05:55:06;7.70;;;5.57;;
29320;SDS011;16323;51.130;6.612;2022-08-19T05:57:33;10.00;;;6.00;;
29320;SDS011;16323;51.130;6.612;2022-08-19T06:00:00;7.32;;;5.75;;
29320;SDS011;16323;51.130;6.612;2022-08-19T06:02:30;8.52;;;5.55;;
29320;SDS011;16323;51.130;6.612;2022-08-19T06:04:56;10.52;;;5.22;;
29320;SDS011;16323;51.130;6.612;2022-08-19T06:07:23;11.23;;;5.60;;
29320;SDS011;16323;51.130;6.612;2022-08-19T06:09:51;5.15;;;4.65;;
29320;SDS011;16323;51.130;6.612;2022-08-19T06:12:18;7.80;;;5.25;;
29320;SDS011;16323;51.130;6.612;2022-08-19T06:14:45;6.30;;;5.45;;
29320;SDS011;16323;51.130;6.612;2022-08-19T06:17:11;8.35;;;4.85;;
29320;SDS011;16323;51.130;6.612;2022-08-19T06:19:38;9.00;;;5.88;;
29320;SDS011;16323;51.130;6.612;2022-08-19T06:22:07;7.07;;;6.03;;
29320;SDS011;16323;51.130;6.612;2022-08-19T06:24:34;6.07;;;5.20;;
29320;SDS011;16323;51.130;6.612;2022-08-19T06:27:03;6.15;;;5.55;;
29320;SDS011;16323;51.130;6.612;2022-08-19T06:29:31;7.60;;;5.75;;
29320;SDS011;16323;51.130;6.612;2022-08-19T06:31:59;8.13;;;6.18;;
29320;SDS011;16323;51.130;6.612;2022-08-19T06:34:28;7.20;;;6.50;;
29320;SDS011;16323;51.130;6.612;2022-08-19T06:36:57;7.60;;;6.13;;
29320;SDS011;16323;51.130;6.612;2022-08-19T06:39:27;9.90;;;6.82;;
29320;SDS011;16323;51.130;6.612;2022-08-19T06:41:57;9.68;;;6.40;;
29320;SDS011;16323;51.130;6.612;2022-08-19T06:44:29;7.88;;;5.95;;
29320;SDS011;16323;51.130;6.612;2022-08-19T06:47:01;7.60;;;6.35;;
29320;SDS011;16323;51.130;6.612;2022-08-19T06:52:50;13.35;;;6.70;;
29320;SDS011;16323;51.130;6.612;2022-08-19T06:55:19;7.82;;;5.95;;
29320;SDS011;16323;51.130;6.612;2022-08-19T06:57:45;12.30;;;7.80;;
29320;SDS011;16323;51.130;6.612;2022-08-19T07:00:14;11.57;;;7.72;;
29320;SDS011;16323;51.130;6.612;2022-08-19T07:02:41;12.75;;;8.68;;
29320;SDS011;16323;51.130;6.612;2022-08-19T07:05:08;13.15;;;9.02;;
29320;SDS011;16323;51.130;6.612;2022-08-19T07:07:35;14.88;;;9.25;;
29320;SDS011;16323;51.130;6.612;2022-08-19T07:10:02;15.30;;;10.07;;
29320;SDS011;16323;51.130;6.612;2022-08-19T07:12:31;15.57;;;11.30;;
29320;SDS011;16323;51.130;6.612;2022-08-19T07:14:59;15.02;;;11.60;;
29320;SDS011;16323;51.130;6.612;2022-08-19T07:17:27;20.13;;;10.82;;
29320;SDS011;16323;51.130;6.612;2022-08-19T07:19:54;16.55;;;11.45;;
29320;SDS011;16323;51.130;6.612;2022-08-19T07:22:21;16.85;;;11.45;;
29320;SDS011;16323;51.130;6.612;2022-08-19T07:24:48;15.25;;;11.40;;
29320;SDS011;16323;51.130;6.612;2022-08-19T07:27:15;15.85;;;12.27;;
29320;SDS011;16323;51.130;6.612;2022-08-19T07:29:43;15.60;;;11.95;;
29320;SDS011;16323;51.130;6.612;2022-08-19T07:32:10;16.77;;;13.65;;
29320;SDS011;16323;51.130;6.612;2022-08-19T07:34:38;21.60;;;15.10;;
29320;SDS011;16323;51.130;6.612;2022-08-19T07:37:05;25.40;;;16.35;;
29320;SDS011;16323;51.130;6.612;2022-08-19T07:39:33;19.95;;;14.88;;
29320;SDS011;16323;51.130;6.612;2022-08-19T07:42:02;20.50;;;15.00;;
29320;SDS011;16323;51.130;6.612;2022-08-19T07:44:31;21.02;;;14.20;;
29320;SDS011;16323;51.130;6.612;2022-08-19T07:46:59;22.10;;;13.00;;
29320;SDS011;16323;51.130;6.612;2022-08-19T07:49:27;19.40;;;14.02;;
29320;SDS011;16323;51.130;6.612;2022-08-19T07:51:57;19.70;;;13.05;;
29320;SDS011;16323;51.130;6.612;2022-08-19T07:54:27;17.60;;;12.50;;
29320;SDS011;16323;51.130;6.612;2022-08-19T07:56:56;17.95;;;12.70;;
29320;SDS011;16323;51.130;6.612;2022-08-19T07:59:23;18.30;;;12.20;;
29320;SDS011;16323;51.130;6.612;2022-08-19T08:01:50;18.48;;;12.48;;
29320;SDS011;16323;51.130;6.612;2022-08-19T08:04:19;16.85;;;11.60;;
29320;SDS011;16323;51.130;6.612;2022-08-19T08:07:04;17.45;;;12.02;;
29320;SDS011;16323;51.130;6.612;2022-08-19T08:09:50;15.93;;;10.95;;
29320;SDS011;16323;51.130;6.612;2022-08-19T08:12:18;17.60;;;11.70;;
29320;SDS011;16323;51.130;6.612;2022-08-19T08:14:50;17.17;;;11.43;;
29320;SDS011;16323;51.130;6.612;2022-08-19T08:17:18;15.85;;;11.07;;
29320;SDS011;16323;51.130;6.612;2022-08-19T08:19:47;14.75;;;9.80;;
29320;SDS011;16323;51.130;6.612;2022-08-19T08:22:17;14.10;;;9.65;;
29320;SDS011;16323;51.130;6.612;2022-08-19T08:25:00;14.40;;;9.65;;
29320;SDS011;16323;51.130;6.612;2022-08-19T08:27:30;15.50;;;10.75;;
29320;SDS011;16323;51.130;6.612;2022-08-19T08:29:57;13.15;;;9.40;;
29320;SDS011;16323;51.130;6.612;2022-08-19T08:32:23;12.95;;;9.40;;
29320;SDS011;16323;51.130;6.612;2022-08-19T08:34:50;15.48;;;9.13;;
29320;SDS011;16323;51.130;6.612;2022-08-19T08:37:20;14.60;;;9.40;;
29320;SDS011;16323;51.130;6.612;2022-08-19T08:39:47;10.18;;;7.95;;
29320;SDS011;16323;51.130;6.612;2022-08-19T08:42:16;11.95;;;8.55;;
29320;SDS011;16323;51.130;6.612;2022-08-19T08:44:52;12.73;;;8.32;;
29320;SDS011;16323;51.130;6.612;2022-08-19T08:47:24;12.15;;;8.30;;
29320;SDS011;16323;51.130;6.612;2022-08-19T08:49:53;11.40;;;8.40;;
29320;SDS011;16323;51.130;6.612;2022-08-19T08:52:26;11.73;;;7.50;;
29320;SDS011;16323;51.130;6.612;2022-08-19T08:54:59;13.25;;;9.25;;
29320;SDS011;16323;51.130;6.612;2022-08-19T08:57:32;12.38;;;8.35;;
29320;SDS011;16323;51.130;6.612;2022-08-19T09:00:04;10.52;;;7.97;;
29320;SDS011;16323;51.130;6.612;2022-08-19T09:02:33;11.30;;;7.57;;
29320;SDS011;16323;51.130;6.612;2022-08-19T09:05:00;14.25;;;7.75;;
29320;SDS011;16323;51.130;6.612;2022-08-19T09:07:32;10.13;;;7.75;;
29320;SDS011;16323;51.130;6.612;2022-08-19T09:10:15;12.05;;;7.97;;
29320;SDS011;16323;51.130;6.612;2022-08-19T09:12:52;12.18;;;7.25;;
29320;SDS011;16323;51.130;6.612;2022-08-19T09:15:29;9.93;;;6.75;;
29320;SDS011;16323;51.130;6.612;2022-08-19T09:18:01;9.63;;;6.88;;
29320;SDS011;16323;51.130;6.612;2022-08-19T09:20:28;9.18;;;6.18;;
29320;SDS011;16323;51.130;6.612;2022-08-19T09:22:57;7.10;;;5.55;;
29320;SDS011;16323;51.130;6.612;2022-08-19T09:25:25;7.88;;;5.47;;
29320;SDS011;16323;51.130;6.612;2022-08-19T09:27:52;9.40;;;5.65;;
29320;SDS011;16323;51.130;6.612;2022-08-19T09:30:22;6.65;;;5.60;;
29320;SDS011;16323;51.130;6.612;2022-08-19T09:32:50;7.82;;;5.85;;
29320;SDS011;16323;51.130;6.612;2022-08-19T09:35:19;8.40;;;5.57;;
29320;SDS011;16323;51.130;6.612;2022-08-19T09:37:47;8.15;;;5.78;;
29320;SDS011;16323;51.130;6.612;2022-08-19T09:40:17;7.80;;;5.13;;
29320;SDS011;16323;51.130;6.612;2022-08-19T09:42:45;7.40;;;5.20;;
29320;SDS011;16323;51.130;6.612;2022-08-19T09:45:12;7.47;;;5.53;;
29320;SDS011;16323;51.130;6.612;2022-08-19T09:47:41;6.40;;;4.85;;
29320;SDS011;16323;51.130;6.612;2022-08-19T09:50:09;7.13;;;4.85;;
29320;SDS011;16323;51.130;6.612;2022-08-19T09:52:37;7.57;;;5.28;;
29320;SDS011;16323;51.130;6.612;2022-08-19T09:55:04;6.57;;;4.60;;
29320;SDS011;16323;51.130;6.612;2022-08-19T09:57:34;6.13;;;4.78;;
29320;SDS011;16323;51.130;6.612;2022-08-19T10:00:02;7.90;;;5.20;;
29320;SDS011;16323;51.130;6.612;2022-08-19T10:02:30;8.10;;;5.03;;
29320;SDS011;16323;51.130;6.612;2022-08-19T10:04:57;6.50;;;5.03;;
29320;SDS011;16323;51.130;6.612;2022-08-19T10:07:42;8.15;;;5.35;;
29320;SDS011;16323;51.130;6.612;2022-08-19T10:10:09;6.57;;;4.90;;
29320;SDS011;16323;51.130;6.612;2022-08-19T10:12:37;6.03;;;4.57;;
29320;SDS011;16323;51.130;6.612;2022-08-19T10:15:05;8.13;;;4.88;;
29320;SDS011;16323;51.130;6.612;2022-08-19T10:17:33;6.97;;;5.25;;
29320;SDS011;16323;51.130;6.612;2022-08-19T10:20:00;6.93;;;5.13;;
29320;SDS011;16323;51.130;6.612;2022-08-19T10:22:28;5.82;;;4.65;;
29320;SDS011;16323;51.130;6.612;2022-08-19T10:24:54;8.38;;;5.20;;
29320;SDS011;16323;51.130;6.612;2022-08-19T10:27:21;5.32;;;4.60;;
29320;SDS011;16323;51.130;6.612;2022-08-19T10:29:50;6.03;;;4.65;;
29320;SDS011;16323;51.130;6.612;2022-08-19T10:32:16;7.38;;;4.85;;
29320;SDS011;16323;51.130;6.612;2022-08-19T10:34:43;5.75;;;4.38;;
29320;SDS011;16323;51.130;6.612;2022-08-19T10:37:11;7.45;;;4.72;;
29320;SDS011;16323;51.130;6.612;2022-08-19T10:39:38;5.82;;;4.18;;
29320;SDS011;16323;51.130;6.612;2022-08-19T10:42:05;6.32;;;4.57;;
29320;SDS011;16323;51.130;6.612;2022-08-19T10:44:35;11.43;;;4.60;;
29320;SDS011;16323;51.130;6.612;2022-08-19T10:47:04;5.00;;;4.03;;
29320;SDS011;16323;51.130;6.612;2022-08-19T10:49:31;8.02;;;4.45;;
29320;SDS011;16323;51.130;6.612;2022-08-19T10:52:18;5.53;;;4.28;;
29320;SDS011;16323;51.130;6.612;2022-08-19T10:54:58;5.50;;;3.95;;
29320;SDS011;16323;51.130;6.612;2022-08-19T10:57:43;6.78;;;4.35;;
29320;SDS011;16323;51.130;6.612;2022-08-19T11:00:10;4.88;;;3.50;;
29320;SDS011;16323;51.130;6.612;2022-08-19T11:02:39;5.50;;;4.05;;
29320;SDS011;16323;51.130;6.612;2022-08-19T11:05:07;6.72;;;4.20;;
29320;SDS011;16323;51.130;6.612;2022-08-19T11:07:36;5.00;;;3.58;;
29320;SDS011;16323;51.130;6.612;2022-08-19T11:10:05;5.30;;;3.80;;
29320;SDS011;16323;51.130;6.612;2022-08-19T11:12:32;4.35;;;3.75;;
29320;SDS011;16323;51.130;6.612;2022-08-19T11:14:59;6.20;;;4.00;;
29320;SDS011;16323;51.130;6.612;2022-08-19T11:17:26;4.75;;;3.60;;
29320;SDS011;16323;51.130;6.612;2022-08-19T11:19:55;5.90;;;4.15;;
29320;SDS011;16323;51.130;6.612;2022-08-19T11:22:22;6.32;;;4.35;;
29320;SDS011;16323;51.130;6.612;2022-08-19T11:24:49;16.60;;;5.28;;
29320;SDS011;16323;51.130;6.612;2022-08-19T11:27:27;11.30;;;4.88;;
29320;SDS011;16323;51.130;6.612;2022-08-19T11:29:54;10.45;;;4.47;;
29320;SDS011;16323;51.130;6.612;2022-08-19T11:32:21;14.18;;;4.25;;
29320;SDS011;16323;51.130;6.612;2022-08-19T11:34:48;10.80;;;4.50;;
29320;SDS011;16323;51.130;6.612;2022-08-19T11:37:14;10.52;;;4.30;;
29320;SDS011;16323;51.130;6.612;2022-08-19T11:39:41;7.75;;;4.15;;
29320;SDS011;16323;51.130;6.612;2022-08-19T11:42:08;8.57;;;4.00;;
29320;SDS011;16323;51.130;6.612;2022-08-19T11:44:54;13.23;;;4.05;;
29320;SDS011;16323;51.130;6.612;2022-08-19T11:47:21;8.88;;;4.25;;
29320;SDS011;16323;51.130;6.612;2022-08-19T11:49:48;7.82;;;4.18;;
29320;SDS011;16323;51.130;6.612;2022-08-19T11:52:15;10.85;;;4.43;;
29320;SDS011;16323;51.130;6.612;2022-08-19T11:54:41;8.00;;;4.47;;
29320;SDS011;16323;51.130;6.612;2022-08-19T11:57:08;10.38;;;4.32;;
29320;SDS011;16323;51.130;6.612;2022-08-19T11:59:35;8.35;;;4.18;;
29320;SDS011;16323;51.130;6.612;2022-08-19T12:02:03;6.78;;;3.95;;
29320;SDS011;16323;51.130;6.612;2022-08-19T12:04:30;8.32;;;4.00;;
29320;SDS011;16323;51.130;6.612;2022-08-19T12:06:57;7.50;;;3.60;;
29320;SDS011;16323;51.130;6.612;2022-08-19T12:09:23;8.43;;;3.97;;
29320;SDS011;16323;51.130;6.612;2022-08-19T12:11:50;5.95;;;3.97;;
29320;SDS011;16323;51.130;6.612;2022-08-19T12:14:17;6.00;;;3.67;;
29320;SDS011;16323;51.130;6.612;2022-08-19T12:16:44;6.28;;;3.92;;
29320;SDS011;16323;51.130;6.612;2022-08-19T12:19:13;7.03;;;3.88;;
29320;SDS011;16323;51.130;6.612;2022-08-19T12:21:40;5.90;;;3.58;;
29320;SDS011;16323;51.130;6.612;2022-08-19T12:24:07;6.93;;;3.90;;
29320;SDS011;16323;51.130;6.612;2022-08-19T12:26:34;6.03;;;3.70;;
29320;SDS011;16323;51.130;6.612;2022-08-19T12:29:01;7.43;;;3.92;;
29320;SDS011;16323;51.130;6.612;2022-08-19T12:31:29;4.88;;;3.22;;
29320;SDS011;16323;51.130;6.612;2022-08-19T12:33:56;5.82;;;3.47;;
29320;SDS011;16323;51.130;6.612;2022-08-19T12:36:25;6.20;;;3.38;;
29320;SDS011;16323;51.130;6.612;2022-08-19T12:38:52;4.65;;;2.95;;
29320;SDS011;16323;51.130;6.612;2022-08-19T12:41:19;5.35;;;3.50;;
29320;SDS011;16323;51.130;6.612;2022-08-19T12:43:47;4.93;;;3.17;;
29320;SDS011;16323;51.130;6.612;2022-08-19T12:46:14;5.85;;;3.70;;
29320;SDS011;16323;51.130;6.612;2022-08-19T12:48:41;5.18;;;3.35;;
29320;SDS011;16323;51.130;6.612;2022-08-19T12:51:10;4.28;;;2.78;;
29320;SDS011;16323;51.130;6.612;2022-08-19T12:53:41;3.95;;;2.70;;
29320;SDS011;16323;51.130;6.612;2022-08-19T12:56:09;4.68;;;2.92;;
29320;SDS011;16323;51.130;6.612;2022-08-19T12:58:39;6.20;;;3.42;;
29320;SDS011;16323;51.130;6.612;2022-08-19T13:01:07;6.90;;;3.80;;
29320;SDS011;16323;51.130;6.612;2022-08-19T13:03:35;5.47;;;3.17;;
29320;SDS011;16323;51.130;6.612;2022-08-19T13:06:02;4.40;;;3.10;;
29320;SDS011;16323;51.130;6.612;2022-08-19T13:08:29;6.00;;;3.22;;
29320;SDS011;16323;51.130;6.612;2022-08-19T13:10:57;6.35;;;3.10;;
29320;SDS011;16323;51.130;6.612;2022-08-19T13:13:24;4.45;;;2.97;;
29320;SDS011;16323;51.130;6.612;2022-08-19T13:15:51;4.65;;;3.03;;
29320;SDS011;16323;51.130;6.612;2022-08-19T13:18:18;3.55;;;2.80;;
29320;SDS011;16323;51.130;6.612;2022-08-19T13:20:45;5.38;;;2.85;;
29320;SDS011;16323;51.130;6.612;2022-08-19T13:23:12;5.75;;;3.10;;
29320;SDS011;16323;51.130;6.612;2022-08-19T13:25:39;3.83;;;2.80;;
29320;SDS011;16323;51.130;6.612;2022-08-19T13:28:07;3.10;;;2.42;;
29320;SDS011;16323;51.130;6.612;2022-08-19T13:30:34;4.25;;;2.60;;
29320;SDS011;16323;51.130;6.612;2022-08-19T13:33:18;4.13;;;2.92;;
29320;SDS011;16323;51.130;6.612;2022-08-19T13:35:46;3.65;;;2.63;;
29320;SDS011;16323;51.130;6.612;2022-08-19T13:38:16;3.17;;;2.45;;
29320;SDS011;16323;51.130;6.612;2022-08-19T13:40:44;2.85;;;2.33;;
29320;SDS011;16323;51.130;6.612;2022-08-19T13:43:12;3.30;;;2.47;;
29320;SDS011;16323;51.130;6.612;2022-08-19T13:45:40;2.53;;;2.25;;
29320;SDS011;16323;51.130;6.612;2022-08-19T13:48:07;3.53;;;2.55;;
29320;SDS011;16323;51.130;6.612;2022-08-19T13:50:35;3.08;;;2.47;;
29320;SDS011;16323;51.130;6.612;2022-08-19T13:53:06;4.38;;;2.30;;
29320;SDS011;16323;51.130;6.612;2022-08-19T13:55:34;4.30;;;2.33;;
29320;SDS011;16323;51.130;6.612;2022-08-19T13:58:01;3.22;;;2.58;;
29320;SDS011;16323;51.130;6.612;2022-08-19T14:00:31;2.67;;;2.47;;
29320;SDS011;16323;51.130;6.612;2022-08-19T14:02:59;2.90;;;2.15;;
29320;SDS011;16323;51.130;6.612;2022-08-19T14:05:26;3.60;;;2.58;;
29320;SDS011;16323;51.130;6.612;2022-08-19T14:07:54;2.25;;;2.05;;
29320;SDS011;16323;51.130;6.612;2022-08-19T14:10:22;3.38;;;2.30;;
29320;SDS011;16323;51.130;6.612;2022-08-19T14:12:51;2.53;;;2.20;;
29320;SDS011;16323;51.130;6.612;2022-08-19T14:15:20;2.33;;;2.10;;
29320;SDS011;16323;51.130;6.612;2022-08-19T14:17:49;2.72;;;2.33;;
29320;SDS011;16323;51.130;6.612;2022-08-19T14:20:16;2.58;;;2.03;;
29320;SDS011;16323;51.130;6.612;2022-08-19T14:22:43;3.08;;;2.28;;
29320;SDS011;16323;51.130;6.612;2022-08-19T14:25:13;2.45;;;1.90;;
29320;SDS011;16323;51.130;6.612;2022-08-19T14:27:43;2.40;;;2.17;;
29320;SDS011;16323;51.130;6.612;2022-08-19T14:30:11;2.42;;;2.10;;
29320;SDS011;16323;51.130;6.612;2022-08-19T14:32:40;3.03;;;2.10;;
29320;SDS011;16323;51.130;6.612;2022-08-19T14:35:11;2.40;;;2.10;;
29320;SDS011;16323;51.130;6.612;2022-08-19T14:37:40;2.45;;;2.00;;
29320;SDS011;16323;51.130;6.612;2022-08-19T14:40:08;1.80;;;1.70;;
29320;SDS011;16323;51.130;6.612;2022-08-19T14:42:35;2.80;;;2.00;;
29320;SDS011;16323;51.130;6.612;2022-08-19T14:45:02;2.67;;;2.03;;
29320;SDS011;16323;51.130;6.612;2022-08-19T14:47:31;2.17;;;1.55;;
29320;SDS011;16323;51.130;6.612;2022-08-19T14:49:57;2.13;;;1.90;;
29320;SDS011;16323;51.130;6.612;2022-08-19T14:52:26;2.53;;;1.98;;
29320;SDS011;16323;51.130;6.612;2022-08-19T14:54:52;2.25;;;1.80;;